Grove, OK

8:27 AM CST on December 21, 2014 (GMT -0600)
Blue Heron Cove, Patricia Island, Grove,OK | Change Station
CLOSE
Current Station
Personal Weather Station
Location: Grove, OK
Elevation: 774 ft
Nearby Weather Stations

Elev 774 ft 36.59 °N, 94.84 °W | Updated 30 seconds ago

Overcast
Overcast
44.1 °F
Feels Like 44 °F
N
2.2
Wind Variable Wind from North
Gusts 3.8 mph

Today
High -- | Low -- °F
--% Chance of Precip.
Yesterday
High -- | Low -- °F
Precip. -- in
7:27 AM 5:07 PM
Waning Crescent, 0% visible
Pressure 30.10 in
Visibility 5.0 miles
Clouds Scattered Clouds 2500 ft
Mostly Cloudy 3200 ft
Overcast 3900 ft
Windchill 44 °F
Dew Point 40 °F
Humidity 85%
Rainfall 0.00 in
Snow Depth Not available.
UV 0 out of 12
Pollen 4.50 out of 12
Air Quality Not available.
Flu Activity Not available.
METAR KGMJ 211415Z AUTO 16005KT 5SM BR SCT025 BKN032 OVC039 07/07 A3010 RMK AO2

More Conditions Fewer Conditions

Pressure 30.10 in
Visibility 5.0 miles
Clouds Scattered Clouds 2500 ft
Mostly Cloudy 3200 ft
Overcast 3900 ft
Windchill 44 °F
Dew Point 40 °F
Humidity 85%
Rainfall 0.00 in
Snow Depth Not available.
UV 0 out of 12
Pollen 4.50 out of 12
Air Quality Not available.
Flu Activity Not available.
METAR KGMJ 211415Z AUTO 16005KT 5SM BR SCT025 BKN032 OVC039 07/07 A3010 RMK AO2

More Conditions Fewer Conditions

10-Day Weather Forecast

Almanac

Astronomy

Dec. 21, 2014 Rise Set
Actual Time
Civil Twilight
Nautical Twilight
Astronomical Twilight
Moon
Length of Visible Light
Length of Day
Tomorrow will be .
, % of the Moon is Illuminated

Today's Extremes

State Highs State Lows

Community

WunderPhotos

Upload Photos

1,779,392 photos uploaded!

WunderBlogs® & News

Nearby

Air Quality

  Air Quality AQ Index Pollutant
Not available.

Snow Depth

Station Depth Elevation

Earthquake Activity

City Distance Mag. Time & Date
Minimum magnitude displayed is 2.5.

Coastal Water Temperatures

Place Temperature

Nearby Weather Stations